Time;durP1;ratioP1;P1;durP2;ratioP2;P2;SDS_P1;SDS_P2;PMS_P1;PMS_P2;Temp;Humidity;BMP_temperature;BMP_pressure;BME280_temperature;BME280_humidity;BME280_pressure;Samples;Min_cycle;Max_cycle;Signal;HPM_P1;HPM_P2
2021/07/10 07:06:06;;;;;;;13.77;10.18;;;21.70;99.90;;;23.74;60.11;100739.94;6194138;23;20027;-88
2021/07/10 07:08:32;;;;;;;11.10;8.10;;;21.70;99.90;;;23.80;60.63;100735.31;6192611;23;20036;-88
2021/07/10 07:10:58;;;;;;;13.15;8.18;;;21.70;99.90;;;24.06;60.12;100735.00;6167391;23;20001;-87
2021/07/10 07:13:24;;;;;;;13.38;8.68;;;21.90;99.90;;;23.91;59.48;100735.84;6167069;23;20148;-89
2021/07/10 07:15:55;;;;;;;10.30;8.63;;;21.80;99.90;;;23.79;60.69;100736.56;6164000;23;20489;-86
2021/07/10 07:18:21;;;;;;;12.95;9.27;;;21.80;99.90;;;23.73;60.33;100739.13;6170130;23;20012;-87
2021/07/10 07:20:47;;;;;;;11.00;8.70;;;21.90;99.90;;;23.77;60.55;100739.06;6176480;23;20009;-87
2021/07/10 07:23:13;;;;;;;11.02;7.63;;;21.80;99.90;;;24.04;59.83;100731.00;6171163;23;20013;-88
2021/07/10 07:25:39;;;;;;;10.23;7.22;;;21.90;99.90;;;24.35;59.50;100737.13;6167056;23;20036;-86
2021/07/10 07:28:07;;;;;;;9.07;7.50;;;22.10;99.90;;;24.40;57.80;100751.63;6192415;23;20053;-88
2021/07/10 07:30:34;;;;;;;9.60;7.55;;;22.30;99.90;;;24.36;56.07;100739.53;6166974;23;20009;-88
2021/07/10 07:33:00;;;;;;;10.82;7.38;;;22.30;99.90;;;24.20;56.31;100748.13;6167100;23;20065;-87
2021/07/10 07:35:26;;;;;;;9.23;7.45;;;22.30;99.90;;;24.25;55.06;100730.44;6167443;23;20005;-87
2021/07/10 07:37:52;;;;;;;9.90;6.70;;;22.30;99.90;;;24.61;54.35;100733.09;6164635;23;20036;-87
2021/07/10 07:40:29;;;;;;;10.60;7.32;;;22.40;99.90;;;24.58;54.51;100731.16;6164226;23;20009;-91
2021/07/10 07:42:55;;;;;;;9.57;7.15;;;22.50;99.90;;;24.47;55.22;100733.50;6193208;23;20001;-89
2021/07/10 07:45:22;;;;;;;12.13;6.82;;;22.50;99.90;;;24.61;55.40;100739.63;6191507;23;20061;-88
2021/07/10 07:47:52;;;;;;;7.68;5.90;;;22.50;99.90;;;24.79;55.43;100739.06;6163742;23;20013;-87
2021/07/10 07:50:19;;;;;;;10.32;6.72;;;22.60;99.90;;;24.95;54.25;100744.75;6164373;23;20009;-88
2021/07/10 07:52:46;;;;;;;10.32;5.70;;;22.70;99.90;;;25.02;54.33;100738.00;6165976;23;20009;-89
2021/07/10 07:55:18;;;;;;;9.57;5.72;;;22.80;99.90;;;25.13;54.92;100730.72;6191594;23;20009;-87
2021/07/10 07:57:47;;;;;;;8.98;5.75;;;22.80;99.90;;;25.16;53.55;100737.59;6165339;23;20020;-87
2021/07/10 08:00:23;;;;;;;7.07;5.32;;;22.90;99.90;;;25.21;54.22;100730.47;6167204;23;20418;-87
2021/07/10 08:02:50;;;;;;;9.70;5.53;;;23.00;99.90;;;24.96;53.15;100731.25;6163769;23;20029;-89
2021/07/10 08:05:17;;;;;;;6.95;5.10;;;23.00;99.90;;;25.03;53.86;100729.00;6165808;23;20013;-86
2021/07/10 08:07:44;;;;;;;6.95;5.18;;;23.00;99.90;;;25.23;53.22;100733.69;6166382;23;20016;-90
2021/07/10 08:10:16;;;;;;;7.30;4.85;;;23.10;99.90;;;25.29;53.39;100732.69;6167329;23;20013;-87
2021/07/10 08:12:47;;;;;;;8.60;5.22;;;23.10;99.90;;;25.34;52.92;100729.22;6162801;23;20097;-87
2021/07/10 08:15:16;;;;;;;10.00;6.10;;;23.10;99.90;;;25.25;53.63;100725.47;6163365;23;20063;-85
2021/07/10 08:17:45;;;;;;;10.95;5.93;;;23.10;99.90;;;24.93;53.09;100735.03;6162350;23;20009;-88
2021/07/10 08:20:14;;;;;;;7.32;5.22;;;23.00;99.90;;;25.08;53.36;100727.63;6163420;23;20064;-84
2021/07/10 08:22:40;;;;;;;9.40;7.03;;;23.00;99.90;;;24.92;54.18;100716.28;6162474;23;20012;-87
2021/07/10 08:25:08;;;;;;;10.38;6.65;;;23.10;99.90;;;25.20;54.04;100724.00;6163791;23;20289;-89
2021/07/10 08:27:43;;;;;;;6.80;5.32;;;23.20;99.90;;;25.38;52.89;100724.22;6188287;23;20027;-90
2021/07/10 08:30:15;;;;;;;9.60;4.63;;;23.30;99.90;;;25.66;52.17;100728.19;6163017;23;20013;-89
2021/07/10 08:32:44;;;;;;;6.47;4.50;;;23.40;99.90;;;25.79;50.99;100725.31;6162901;23;20337;-89
2021/07/10 08:35:13;;;;;;;4.82;3.80;;;23.60;99.90;;;25.74;51.06;100717.34;6164122;23;20008;-87
2021/07/10 08:37:40;;;;;;;10.73;5.05;;;23.60;99.90;;;25.92;50.16;100708.91;6163680;23;20359;-88
2021/07/10 08:40:10;;;;;;;8.10;5.90;;;23.80;99.90;;;25.81;51.70;100715.03;6166835;23;20072;-89
2021/07/10 08:42:37;;;;;;;7.75;5.38;;;23.80;99.90;;;25.90;51.49;100712.25;6166083;23;20005;-90
2021/07/10 08:45:13;;;;;;;8.20;5.82;;;23.80;99.90;;;25.89;50.88;100702.06;6166872;23;20036;-88
2021/07/10 08:47:43;;;;;;;8.25;5.60;;;23.90;99.90;;;26.13;50.61;100702.47;6165320;23;20009;-90
2021/07/10 08:50:17;;;;;;;8.13;5.22;;;24.00;99.90;;;26.38;49.19;100702.38;6165410;23;20009;-90
2021/07/10 08:52:44;;;;;;;6.22;4.60;;;24.20;99.90;;;26.90;50.67;100712.31;6164108;23;20415;-89
2021/07/10 08:55:15;;;;;;;6.18;5.03;;;24.40;99.90;;;26.77;47.76;100705.81;6164436;23;20028;-90
2021/07/10 08:57:42;;;;;;;8.15;5.30;;;24.50;99.90;;;27.01;46.76;100713.47;6165793;23;20016;-91
2021/07/10 09:00:28;;;;;;;8.02;5.20;;;24.70;99.90;;;26.97;48.11;100697.69;6169723;23;20036;-89
2021/07/10 09:02:57;;;;;;;6.88;4.97;;;24.70;99.90;;;27.17;46.71;100700.97;6168238;23;20012;-89
2021/07/10 09:05:25;;;;;;;8.10;5.30;;;24.80;99.90;;;27.38;46.54;100699.31;6193505;23;20016;-89
2021/07/10 09:08:19;;;;;;;7.35;5.60;;;25.00;99.90;;;27.33;45.45;100699.91;6164346;23;20339;-88
2021/07/10 09:11:11;;;;;;;6.13;5.00;;;25.10;99.00;;;27.81;45.43;100707.72;6164005;23;20009;-88
2021/07/10 09:13:54;;;;;;;7.05;5.03;;;25.30;99.80;;;27.79;45.39;100686.53;6162946;23;20071;-90
2021/07/10 09:16:36;;;;;;;6.25;4.80;;;25.40;98.30;;;27.44;47.52;100695.38;6190953;23;20009;-87
2021/07/10 09:19:11;;;;;;;5.95;4.20;;;25.20;99.90;;;27.40;47.12;100691.81;6166599;23;20360;-86
2021/07/10 09:21:45;;;;;;;6.78;4.22;;;25.10;99.90;;;27.57;45.52;100681.72;6168741;23;20008;-88
2021/07/10 09:24:16;;;;;;;7.07;4.60;;;25.20;98.10;;;27.19;46.92;100686.97;6162753;23;20012;-90
2021/07/10 09:26:55;;;;;;;8.05;5.28;;;25.10;99.30;;;26.88;46.72;100686.16;6162401;23;20096;-89
2021/07/10 09:29:29;;;;;;;7.25;4.75;;;24.80;99.00;;;26.38;47.71;100676.59;6161500;23;20045;-87
2021/07/10 09:32:11;;;;;;;5.30;3.97;;;24.50;99.80;;;26.34;49.21;100678.78;6161344;23;20009;-89
2021/07/10 09:34:45;;;;;;;9.30;5.45;;;24.40;99.90;;;26.30;48.09;100672.41;6186303;23;20005;-86
2021/07/10 09:37:25;;;;;;;6.43;5.13;;;24.30;99.90;;;26.37;49.82;100669.28;6188433;23;20069;-86
2021/07/10 09:40:12;;;;;;;7.10;4.97;;;24.20;99.90;;;26.08;50.80;100669.50;6160965;23;20092;-88
2021/07/10 09:42:43;;;;;;;8.18;5.10;;;24.10;99.90;;;25.83;49.57;100666.72;6163434;23;20115;-89
2021/07/10 09:45:21;;;;;;;5.65;4.18;;;24.00;99.90;;;26.25;51.01;100666.47;6174637;23;20001;-89
2021/07/10 09:47:47;;;;;;;7.07;6.18;;;24.10;99.90;;;26.11;48.19;100662.03;6171760;23;20016;-91
2021/07/10 09:50:23;;;;;;;10.35;5.85;;;24.20;99.90;;;26.39;48.43;100649.56;6165022;23;20009;-91
2021/07/10 09:52:51;;;;;;;9.63;4.90;;;24.40;99.90;;;26.80;47.54;100656.19;6163579;23;20024;-86
2021/07/10 09:55:19;;;;;;;6.60;4.80;;;24.60;99.90;;;26.79;47.66;100660.31;6163579;23;20051;-89
2021/07/10 09:57:47;;;;;;;5.70;4.50;;;24.70;99.90;;;26.93;47.78;100657.72;6163904;23;20013;-89
2021/07/10 10:00:20;;;;;;;13.00;6.00;;;24.80;99.90;;;26.27;48.63;100652.47;6163812;23;20016;-89
2021/07/10 10:02:57;;;;;;;8.30;5.03;;;24.70;99.90;;;26.19;49.76;100647.03;6163664;23;20024;-89
2021/07/10 10:05:40;;;;;;;9.35;5.00;;;24.60;99.90;;;26.72;48.11;100641.31;6165314;23;20005;-90
2021/07/10 10:08:08;;;;;;;6.72;4.70;;;24.70;99.90;;;27.31;47.59;100656.56;6165749;23;20084;-88
2021/07/10 10:10:42;;;;;;;6.75;4.80;;;25.00;99.90;;;27.73;47.73;100649.06;6170023;23;20013;-89
2021/07/10 10:13:12;;;;;;;5.80;4.38;;;25.30;99.90;;;27.49;46.02;100645.16;6168490;23;20013;-90
2021/07/10 10:15:51;;;;;;;7.03;5.07;;;25.40;98.70;;;27.46;46.26;100649.00;6174450;23;20036;-92
2021/07/10 10:18:23;;;;;;;10.38;5.03;;;25.30;99.00;;;27.05;47.25;100636.75;6174976;23;20016;-89
2021/07/10 10:20:51;;;;;;;5.30;4.55;;;25.00;99.70;;;27.33;47.25;100642.56;6178703;23;20005;-87
2021/07/10 10:23:21;;;;;;;9.40;5.72;;;25.00;99.90;;;27.28;47.89;100649.72;6178925;23;20055;-89
2021/07/10 12:48:22;;;;;;;4.50;3.50;;;28.00;73.00;;;30.73;38.99;100515.06;6247156;23;20391;-88
2021/07/10 12:50:48;;;;;;;4.40;3.10;;;28.10;74.50;;;30.60;36.85;100518.28;6222029;23;20087;-87
2021/07/10 12:53:17;;;;;;;5.38;3.30;;;28.30;67.50;;;30.88;38.45;100515.84;6264280;23;20004;-89
2021/07/10 12:56:00;;;;;;;4.78;3.60;;;28.50;70.50;;;31.37;35.77;100517.84;6228855;23;20095;-90
2021/07/10 12:58:27;;;;;;;5.10;3.83;;;28.90;66.20;;;31.24;35.32;100520.34;6248313;23;20091;-89
2021/07/10 13:00:53;;;;;;;6.22;3.85;;;28.80;64.30;;;30.67;35.78;100520.75;6222539;23;20000;-90
2021/07/10 13:03:24;;;;;;;3.65;3.15;;;28.40;63.80;;;30.65;36.97;100514.72;6223608;23;20027;-90
2021/07/10 13:05:53;;;;;;;3.65;3.22;;;28.30;66.30;;;30.17;38.34;100516.22;6220568;23;20083;-88
2021/07/10 13:08:29;;;;;;;3.58;3.15;;;27.70;68.20;;;29.17;38.48;100517.84;6246017;23;20030;-90
2021/07/10 13:11:00;;;;;;;4.68;3.00;;;27.10;67.60;;;28.23;39.82;100509.81;6249163;23;20075;-88
2021/07/10 13:13:40;;;;;;;5.00;3.60;;;26.40;68.70;;;27.91;40.70;100511.28;6245746;23;20505;-90
2021/07/10 13:16:14;;;;;;;4.10;3.47;;;25.90;71.20;;;27.73;40.67;100494.09;6220774;23;20004;-91
2021/07/10 13:18:55;;;;;;;4.10;3.30;;;25.70;71.60;;;27.81;42.98;100503.97;6220256;23;20059;-88
2021/07/10 13:21:34;;;;;;;5.35;3.47;;;25.60;80.30;;;28.13;40.51;100500.41;6246494;23;20015;-89
2021/07/10 13:24:13;;;;;;;5.25;3.60;;;25.70;72.90;;;28.34;39.93;100492.06;6245031;23;20008;-89
2021/07/10 13:26:50;;;;;;;5.38;3.47;;;25.90;73.10;;;28.59;40.06;100494.50;6252845;23;20015;-91
2021/07/10 13:29:43;;;;;;;6.85;3.10;;;26.10;73.00;;;28.99;39.92;100488.44;6225335;23;20012;-91
2021/07/10 13:32:11;;;;;;;5.63;3.70;;;26.40;74.60;;;29.29;39.18;100484.38;6253815;23;20004;-91
2021/07/10 13:34:39;;;;;;;5.85;3.63;;;26.70;72.60;;;29.75;39.14;100481.91;6247607;23;20008;-88
2021/07/10 13:37:10;;;;;;;5.68;3.42;;;27.10;72.80;;;30.16;37.01;100482.94;6220060;23;20032;-89
2021/07/10 13:39:42;;;;;;;5.32;3.50;;;27.50;68.20;;;30.70;38.85;100479.41;6221782;23;20015;-89
2021/07/10 13:42:15;;;;;;;11.25;5.43;;;27.90;72.80;;;29.33;39.66;100478.44;6222419;23;20000;-92
2021/07/10 13:45:04;;;;;;;5.72;3.65;;;27.70;68.50;;;29.18;39.27;100472.63;6221515;23;20011;-90
2021/07/10 13:47:30;;;;;;;5.07;3.53;;;27.50;68.60;;;29.22;37.92;100470.34;6223161;23;20066;-90
2021/07/10 13:50:12;;;;;;;4.78;3.20;;;27.10;66.00;;;28.20;40.14;100474.25;6223903;23;20004;-91
2021/07/10 13:52:44;;;;;;;3.97;3.40;;;26.60;68.60;;;28.37;41.77;100471.00;6223773;23;20349;-89
2021/07/10 13:55:40;;;;;;;6.93;3.50;;;26.40;74.20;;;28.37;40.47;100468.13;6246370;23;20008;-90
2021/07/10 13:59:32;;;;;;;;;;;;;;;;;;;;;
2021/07/10 14:02:51;;;;;;;3.92;3.20;;;26.00;71.90;;;27.83;41.16;100467.00;6246445;23;20035;-90
2021/07/10 14:06:01;;;;;;;4.90;3.13;;;25.90;72.70;;;27.75;41.48;100459.97;6238187;23;20121;-92
2021/07/10 14:08:35;;;;;;;3.83;2.88;;;25.70;74.80;;;27.75;42.07;100459.97;6239403;23;20023;-91
2021/07/10 14:11:36;;;;;;;6.40;3.42;;;25.60;76.30;;;27.71;41.82;100456.47;6227856;23;20024;-88
2021/07/10 14:14:05;;;;;;;4.10;3.63;;;25.60;75.70;;;27.64;41.81;100462.56;6225499;23;20087;-87
2021/07/10 14:22:00;;;;;;;4.60;3.25;;;25.50;77.80;;;27.17;44.24;100449.47;6235060;22;19926;-91
2021/07/10 14:24:57;;;;;;;5.32;3.50;;;25.50;80.10;;;27.43;44.06;100449.13;6251799;23;20035;-91
2021/07/10 14:28:51;;;;;;;3.45;3.13;;;25.40;81.90;;;27.69;43.00;100442.63;6195878;23;20004;-89
2021/07/10 14:31:25;;;;;;;6.22;3.53;;;25.50;80.90;;;27.46;43.33;100443.28;6248275;23;20008;-91
2021/07/10 14:33:54;;;;;;;6.70;3.63;;;25.50;79.50;;;27.54;41.85;100443.75;6222702;23;20036;-90
2021/07/10 14:36:21;;;;;;;5.10;3.50;;;25.50;77.20;;;27.50;41.60;100443.91;6221013;23;20450;-86
2021/07/10 14:39:20;;;;;;;3.33;3.00;;;25.30;76.30;;;27.52;43.05;100443.44;6221735;23;20008;-89
2021/07/10 14:41:57;;;;;;;5.20;3.55;;;25.30;80.20;;;27.02;44.57;100433.38;6228751;23;20063;-88
2021/07/10 14:44:38;;;;;;;3.00;2.70;;;25.30;82.30;;;27.00;44.88;100435.94;6224393;23;20009;-89
2021/07/10 14:47:22;;;;;;;5.18;3.55;;;25.20;83.90;;;27.28;45.60;100428.94;6246191;23;20028;-89
2021/07/10 14:49:51;;;;;;;3.92;3.17;;;25.20;90.00;;;27.38;45.63;100430.53;6220355;23;20015;-87
2021/07/10 14:52:37;;;;;;;6.55;4.93;;;25.20;90.20;;;27.25;44.70;100421.28;6220257;23;20028;-88
2021/07/10 14:55:13;;;;;;;4.78;2.97;;;25.10;87.50;;;27.18;45.87;100422.41;6221079;23;20009;-89
2021/07/10 14:57:53;;;;;;;5.15;3.70;;;25.00;91.90;;;27.09;44.85;100428.13;6219830;23;20032;-88
2021/07/10 15:00:28;;;;;;;4.63;3.78;;;25.00;88.50;;;26.52;45.07;100418.28;6221832;23;20323;-88
2021/07/10 15:03:39;;;;;;;4.53;3.63;;;24.80;87.20;;;26.48;45.82;100416.84;6229180;23;20005;-90
2021/07/10 15:06:05;;;;;;;3.60;3.30;;;24.60;90.60;;;26.43;47.25;100429.72;6251511;22;20008;-86
2021/07/10 15:08:32;;;;;;;4.70;3.50;;;24.50;94.20;;;26.28;47.62;100416.47;6238528;23;19996;-86
2021/07/10 15:11:12;;;;;;;;;;;;;;;;;;;;;
2021/07/10 15:14:14;;;;;;;5.70;3.40;;;24.20;95.50;;;25.98;47.02;100406.59;6237523;23;19993;-87
2021/07/10 15:21:46;;;;;;;4.00;3.60;;;24.00;92.10;;;26.05;46.38;100404.25;6235375;23;20020;-87
2021/07/10 15:24:49;;;;;;;4.60;3.42;;;24.00;93.00;;;26.10;48.20;100400.00;6172138;23;20111;-87
2021/07/10 15:28:01;;;;;;;4.90;3.58;;;24.10;97.90;;;26.11;49.53;100387.25;6218908;23;20018;-90
2021/07/10 15:35:29;;;;;;;5.45;4.18;;;24.20;97.10;;;26.23;45.41;100389.25;6201563;23;20016;-91
2021/07/10 15:38:51;;;;;;;4.55;3.95;;;24.20;93.30;;;26.34;46.59;100389.59;6238558;23;20066;-89
2021/07/10 15:41:18;;;;;;;5.82;3.80;;;24.20;94.90;;;26.47;45.72;100387.41;6240490;23;20012;-87
2021/07/10 15:44:09;;;;;;;4.60;3.60;;;24.40;94.10;;;26.48;46.51;100386.16;6216389;23;20009;-87
2021/07/10 15:47:27;;;;;;;4.78;3.70;;;24.40;95.60;;;26.45;46.59;100386.31;6223182;23;20023;-88
2021/07/10 15:51:44;;;;;;;;;;;;;;;;;;;;;
2021/07/10 15:54:11;;;;;;;6.20;4.75;;;24.40;97.30;;;26.32;47.68;100385.63;6172323;23;20040;-87
2021/07/10 16:05:15;;;;;;;6.55;5.05;;;24.10;96.80;;;25.55;49.24;100373.16;6142073;23;20020;-91
2021/07/10 16:08:43;;;;;;;5.25;4.03;;;24.00;99.40;;;25.43;50.43;100371.94;6164850;23;20004;-93
2021/07/10 16:12:28;;;;;;;12.93;9.85;;;23.70;99.90;;;25.14;51.81;100371.44;6213446;23;20005;-89
2021/07/10 16:15:42;;;;;;;8.57;4.63;;;23.50;99.90;;;25.07;52.14;100374.53;6205005;23;20016;-90
2021/07/10 16:18:48;;;;;;;7.30;4.82;;;23.40;99.90;;;24.82;51.89;100380.38;6222900;23;20035;-89
2021/07/10 16:28:03;;;;;;;7.10;4.10;;;23.00;99.90;;;24.88;52.41;100367.09;6256591;22;20020;-85
2021/07/10 16:30:33;;;;;;;5.00;3.60;;;23.10;99.90;;;24.89;51.99;100360.91;6253151;23;20385;-84
2021/07/10 16:33:00;;;;;;;3.90;3.38;;;23.10;99.90;;;25.06;51.71;100361.50;6253281;23;20027;-86
2021/07/10 16:35:27;;;;;;;10.13;4.00;;;23.20;99.90;;;25.09;51.93;100369.16;6224801;23;20004;-87
2021/07/10 16:37:54;;;;;;;6.22;3.75;;;23.20;99.90;;;25.10;51.34;100365.03;6251525;23;20091;-85
2021/07/10 16:40:22;;;;;;;4.05;3.50;;;23.20;99.90;;;25.15;51.75;100373.00;6249950;23;20091;-88
2021/07/10 16:42:49;;;;;;;4.80;3.63;;;23.30;99.90;;;25.13;52.43;100362.06;6251196;23;20004;-89
2021/07/10 16:45:15;;;;;;;5.22;3.40;;;23.20;99.90;;;25.17;52.11;100371.28;6252832;23;20032;-83
2021/07/10 16:47:42;;;;;;;6.38;4.10;;;23.20;99.90;;;25.03;52.18;100363.25;6223374;23;20012;-87
2021/07/10 16:50:15;;;;;;;5.75;4.15;;;23.20;99.90;;;24.83;52.58;100361.94;6252167;23;20016;-89
2021/07/10 16:52:43;;;;;;;5.00;3.90;;;23.10;99.90;;;24.73;52.72;100365.94;6250226;23;20018;-85
2021/07/10 16:55:14;;;;;;;5.70;3.97;;;23.00;99.90;;;24.55;52.64;100360.88;6227896;23;20069;-84
2021/07/10 16:57:40;;;;;;;6.97;4.15;;;22.90;99.90;;;24.48;52.95;100358.25;6225593;23;20058;-86
2021/07/10 17:00:17;;;;;;;5.97;4.18;;;22.80;99.90;;;24.41;52.77;100362.16;6226402;23;20077;-86
2021/07/10 17:02:46;;;;;;;5.82;3.80;;;22.80;99.90;;;24.40;53.20;100359.78;6251854;23;20015;-86
2021/07/10 17:05:16;;;;;;;5.35;4.20;;;22.70;99.90;;;24.38;54.39;100365.94;6252566;23;20000;-87
2021/07/10 17:07:44;;;;;;;7.95;4.97;;;22.60;99.90;;;24.31;54.52;100356.78;6250279;23;20066;-87
2021/07/10 17:10:17;;;;;;;6.38;4.78;;;22.60;99.90;;;24.28;54.08;100360.56;6228145;23;20031;-88
2021/07/10 17:12:44;;;;;;;5.50;4.53;;;22.50;99.90;;;24.21;54.93;100367.31;6251317;23;20019;-85
2021/07/10 17:15:14;;;;;;;5.53;4.70;;;22.50;99.90;;;24.15;55.31;100354.88;6258949;23;20066;-87
2021/07/10 17:17:44;;;;;;;10.77;5.50;;;22.40;99.90;;;24.11;55.27;100349.28;6259648;23;20012;-86
2021/07/10 17:20:15;;;;;;;7.95;4.82;;;22.40;99.90;;;24.04;55.49;100345.88;6260229;23;20038;-86
2021/07/10 17:22:45;;;;;;;7.38;5.55;;;22.40;99.90;;;23.93;55.71;100351.09;6225745;23;20008;-88
2021/07/10 17:25:13;;;;;;;7.07;5.40;;;22.30;99.90;;;23.86;55.65;100345.63;6226676;23;20004;-87
2021/07/10 17:27:40;;;;;;;6.18;4.65;;;22.20;99.90;;;23.78;56.02;100355.66;6249382;23;20011;-86
2021/07/10 17:30:10;;;;;;;9.75;5.63;;;22.10;99.90;;;23.68;56.62;100351.09;6227262;23;20007;-87
2021/07/10 17:32:38;;;;;;;6.28;5.47;;;22.10;99.90;;;23.65;55.95;100352.81;6252683;23;20008;-87
2021/07/10 17:35:11;;;;;;;8.85;5.53;;;21.90;99.90;;;23.57;56.67;100357.13;6254390;23;20038;-86
2021/07/10 17:37:42;;;;;;;7.18;5.53;;;21.90;99.90;;;23.49;56.61;100350.84;6255012;23;20071;-89
2021/07/10 17:40:17;;;;;;;7.57;5.75;;;21.90;99.90;;;23.45;57.24;100352.19;6262020;23;20004;-88
2021/07/10 17:42:45;;;;;;;7.93;5.85;;;21.80;99.90;;;23.37;57.41;100343.06;6252152;23;20020;-88
2021/07/10 17:45:19;;;;;;;7.68;5.88;;;21.70;99.90;;;23.31;57.89;100353.41;6226572;23;19996;-83
2021/07/10 17:47:45;;;;;;;8.45;5.78;;;21.70;99.90;;;23.24;57.93;100342.22;6251562;23;20035;-87
2021/07/10 17:50:15;;;;;;;7.25;5.80;;;21.60;99.90;;;23.24;57.91;100356.47;6226901;23;20016;-85
2021/07/10 17:52:47;;;;;;;9.60;6.10;;;21.60;99.90;;;23.22;57.65;100355.31;6252631;23;20008;-84
2021/07/10 17:55:14;;;;;;;8.35;6.05;;;21.60;99.90;;;23.14;57.36;100357.59;6225222;23;20073;-85
2021/07/10 17:57:42;;;;;;;7.95;5.75;;;21.50;99.90;;;23.08;57.78;100348.78;6253247;23;20000;-87
2021/07/10 18:00:18;;;;;;;10.40;7.35;;;21.50;99.90;;;23.00;58.47;100355.13;6227203;23;20019;-86
2021/07/10 18:02:45;;;;;;;9.05;6.75;;;21.40;99.90;;;22.98;59.09;100349.09;6226486;23;20000;-86
2021/07/10 18:05:18;;;;;;;7.78;5.75;;;21.40;99.90;;;22.96;59.63;100354.41;6255386;23;20035;-87
2021/07/10 18:07:43;;;;;;;9.15;6.47;;;21.30;99.90;;;22.91;59.57;100352.13;6230554;23;20011;-85
2021/07/10 18:10:12;;;;;;;9.15;6.60;;;21.30;99.90;;;22.83;59.74;100348.69;6228986;23;20296;-87
2021/07/10 18:12:40;;;;;;;7.88;6.25;;;21.30;99.90;;;22.81;59.98;100351.19;6251420;23;20464;-88
2021/07/10 18:15:11;;;;;;;8.57;6.25;;;21.20;99.90;;;22.76;60.49;100342.41;6251460;23;20058;-87
2021/07/10 18:17:43;;;;;;;9.05;6.57;;;21.20;99.90;;;22.66;61.33;100344.28;6227285;23;20273;-86
2021/07/10 18:20:14;;;;;;;11.48;6.40;;;21.10;99.90;;;22.63;61.20;100344.34;6253770;23;20011;-86
2021/07/10 18:22:45;;;;;;;8.10;6.45;;;21.10;99.90;;;22.62;61.10;100346.41;6200657;23;20055;-83
2021/07/10 18:25:14;;;;;;;8.13;6.45;;;21.00;99.90;;;22.57;61.37;100342.03;6251286;23;20008;-86
2021/07/10 18:27:41;;;;;;;10.00;7.28;;;21.00;99.90;;;22.56;61.59;100349.00;6251695;23;20445;-84
2021/07/10 18:30:14;;;;;;;8.60;6.90;;;21.00;99.90;;;22.54;61.41;100351.47;6252687;23;20004;-86
2021/07/10 18:32:44;;;;;;;10.40;7.32;;;21.00;99.90;;;22.50;61.75;100356.47;6251406;23;20099;-85
2021/07/10 18:35:12;;;;;;;13.07;7.75;;;20.90;99.90;;;22.53;61.35;100346.25;6251360;23;20016;-85
2021/07/10 18:37:41;;;;;;;11.52;8.05;;;20.90;99.90;;;22.45;61.72;100348.47;6253802;23;20004;-84
2021/07/10 18:40:24;;;;;;;10.43;7.05;;;20.90;99.90;;;22.44;61.93;100344.00;6255257;23;20012;-86
2021/07/10 18:42:53;;;;;;;11.45;7.05;;;20.90;99.90;;;22.42;62.01;100346.50;6226320;23;20004;-86
2021/07/10 18:45:22;;;;;;;9.90;7.25;;;20.90;99.90;;;22.40;62.44;100351.84;6251673;23;20000;-86
2021/07/10 18:47:50;;;;;;;10.77;7.10;;;20.80;99.90;;;22.38;63.00;100353.56;6253661;23;20015;-85
2021/07/10 18:50:19;;;;;;;12.40;7.55;;;20.80;99.90;;;22.34;63.54;100350.78;6237291;23;20015;-86
2021/07/10 18:52:52;;;;;;;12.00;7.72;;;20.80;99.90;;;22.34;63.98;100356.50;6264200;23;20103;-86
2021/07/10 18:55:18;;;;;;;9.90;7.55;;;20.80;99.90;;;22.34;64.27;100350.78;6223982;23;20470;-86
2021/07/10 18:57:47;;;;;;;12.45;7.20;;;20.80;99.90;;;22.29;64.43;100350.50;6223942;23;20453;-85
2021/07/10 19:00:23;;;;;;;10.90;7.15;;;20.70;99.90;;;22.29;64.52;100347.66;6251688;23;20008;-86
2021/07/10 19:02:51;;;;;;;10.60;5.97;;;20.70;99.90;;;22.27;64.09;100344.47;6247576;23;20099;-86
2021/07/10 19:05:18;;;;;;;10.02;6.07;;;20.70;99.90;;;22.25;64.17;100342.06;6248777;23;20095;-86
2021/07/10 19:07:45;;;;;;;7.75;6.07;;;20.70;99.90;;;22.25;64.25;100346.97;6251165;23;20019;-87
2021/07/10 19:10:16;;;;;;;8.68;6.63;;;20.70;99.90;;;22.22;64.39;100342.97;6224847;23;20008;-83
2021/07/10 19:12:45;;;;;;;9.60;6.43;;;20.70;99.90;;;22.20;64.50;100345.47;6249568;23;20062;-85
2021/07/10 19:15:15;;;;;;;9.48;6.55;;;20.70;99.90;;;22.14;64.91;100346.44;6251589;23;20008;-85
2021/07/10 19:17:45;;;;;;;11.00;7.07;;;20.60;99.90;;;22.11;65.28;100353.81;6249962;23;20000;-86
2021/07/10 19:20:18;;;;;;;12.45;7.55;;;20.50;99.90;;;22.04;65.37;100348.28;6248003;23;20008;-85
2021/07/10 19:22:46;;;;;;;9.77;6.80;;;20.50;99.90;;;22.01;65.07;100352.03;6248049;23;20004;-85
2021/07/10 19:25:16;;;;;;;13.85;6.60;;;20.40;99.90;;;21.93;65.33;100356.31;6249805;23;20004;-85
2021/07/10 19:27:44;;;;;;;9.85;6.82;;;20.40;99.90;;;21.85;65.85;100364.16;6222967;23;20503;-86
2021/07/10 19:30:16;;;;;;;9.98;6.32;;;20.30;99.90;;;21.81;66.01;100351.25;6249617;23;20090;-85
2021/07/10 19:32:45;;;;;;;9.63;6.55;;;20.30;99.90;;;21.77;66.18;100356.25;6224452;23;20004;-86
2021/07/10 19:35:13;;;;;;;8.98;6.32;;;20.20;99.90;;;21.74;66.35;100365.63;6246897;23;20446;-83
2021/07/10 19:37:45;;;;;;;10.88;5.97;;;20.20;99.90;;;21.74;65.99;100363.59;6252547;23;20004;-91
2021/07/10 19:40:16;;;;;;;9.93;5.82;;;20.20;99.90;;;21.73;65.90;100361.22;6222993;23;20077;-88
2021/07/10 19:42:44;;;;;;;7.63;5.60;;;20.20;99.90;;;21.75;65.12;100365.22;6248469;23;20008;-87
2021/07/10 19:45:16;;;;;;;8.48;5.93;;;20.20;99.90;;;21.78;64.76;100370.00;6248092;23;20005;-84
2021/07/10 19:47:43;;;;;;;7.85;6.32;;;20.20;99.90;;;21.79;65.14;100373.66;6251642;23;20004;-88
2021/07/10 19:50:28;;;;;;;7.82;5.88;;;20.30;99.90;;;21.76;65.33;100371.69;6227449;23;20008;-88
2021/07/10 19:52:56;;;;;;;7.65;5.93;;;20.20;99.90;;;21.77;65.32;100376.16;6225159;23;20004;-88
2021/07/10 19:55:25;;;;;;;9.02;6.55;;;20.20;99.90;;;21.73;66.46;100379.06;6251300;23;20014;-86
2021/07/10 19:57:52;;;;;;;9.30;6.72;;;20.20;99.90;;;21.71;67.03;100375.84;6225403;23;20028;-87
2021/07/10 20:00:28;;;;;;;11.30;6.85;;;20.20;99.90;;;21.70;67.22;100379.16;6250797;23;20446;-89
2021/07/10 20:03:04;;;;;;;9.85;6.95;;;20.20;99.90;;;21.64;67.36;100373.16;6252074;23;20027;-86
2021/07/10 20:05:31;;;;;;;8.45;6.25;;;20.10;99.90;;;21.59;67.54;100375.72;6248246;23;20004;-88
2021/07/10 20:08:04;;;;;;;7.53;6.07;;;20.10;99.90;;;21.51;67.73;100372.25;6223275;23;20008;-86
2021/07/10 20:10:32;;;;;;;10.50;7.00;;;20.00;99.90;;;21.41;68.85;100373.28;6224135;23;20456;-88
2021/07/10 20:12:58;;;;;;;8.75;6.32;;;19.90;99.90;;;21.32;69.73;100371.03;6224234;23;20008;-88
2021/07/10 20:15:25;;;;;;;9.30;6.00;;;19.80;99.90;;;21.22;70.21;100371.25;6225073;23;20460;-89
2021/07/10 20:17:58;;;;;;;8.65;6.40;;;19.70;99.90;;;21.10;70.79;100377.56;6223497;23;20027;-90
2021/07/10 20:20:25;;;;;;;10.10;6.55;;;19.60;99.90;;;21.00;71.74;100383.00;6249126;23;20465;-88
2021/07/10 20:22:52;;;;;;;8.48;7.13;;;19.60;99.90;;;20.89;72.22;100382.44;6249692;23;20096;-89
2021/07/10 20:25:18;;;;;;;8.95;6.90;;;19.40;99.90;;;20.82;72.41;100379.72;6250357;23;20381;-87
2021/07/10 20:27:45;;;;;;;13.05;8.00;;;19.40;99.90;;;20.77;72.83;100376.59;6223141;23;20035;-90
2021/07/10 20:30:16;;;;;;;11.48;7.72;;;19.30;99.90;;;20.69;73.36;100375.09;6255875;23;20438;-86
2021/07/10 20:32:45;;;;;;;11.30;8.02;;;19.20;99.90;;;20.65;73.81;100380.84;6252110;23;20008;-87
2021/07/10 20:35:19;;;;;;;9.43;7.57;;;19.20;99.90;;;20.62;74.08;100383.75;6226950;23;20019;-86
2021/07/10 20:37:48;;;;;;;10.80;7.28;;;19.10;99.90;;;20.61;74.13;100385.00;6222921;23;20518;-88
2021/07/10 20:40:15;;;;;;;11.30;7.70;;;19.10;99.90;;;20.55;74.75;100381.06;6252470;23;20019;-90
2021/07/10 20:42:42;;;;;;;8.93;6.95;;;19.10;99.90;;;20.52;74.59;100382.69;6248808;23;20064;-86
2021/07/10 20:45:10;;;;;;;10.88;7.18;;;19.10;99.90;;;20.48;74.94;100377.09;6222275;23;20034;-88